Time;durP1;ratioP1;P1;durP2;ratioP2;P2;SDS_P1;SDS_P2;PMS_P1;PMS_P2;Temp;Humidity;BMP_temperature;BMP_pressure;BME280_temperature;BME280_humidity;BME280_pressure;Samples;Min_cycle;Max_cycle;Signal;HPM_P1;HPM_P2
2021/04/10 00:00:21;;;;;;;;;;;7.20;99.90;;;;;;10353137;28;19925;-84
2021/04/10 00:05:23;;;;;;;;;;;7.10;99.90;;;;;;10369541;28;19926;-84
2021/04/10 00:10:26;;;;;;;;;;;7.10;99.90;;;;;;10352967;28;19969;-84
2021/04/10 00:15:29;;;;;;;;;;;7.10;99.90;;;;;;10369091;28;20633;-84
2021/04/10 00:20:30;;;;;;;;;;;7.40;99.90;;;;;;10369838;28;19935;-84
2021/04/10 00:25:31;;;;;;;;;;;7.00;99.90;;;;;;10352398;28;19925;-84
2021/04/10 00:30:33;;;;;;;;;;;7.70;99.90;;;;;;10352314;28;19929;-84
2021/04/10 00:35:35;;;;;;;;;;;7.00;99.90;;;;;;10369501;28;19926;-84
2021/04/10 00:40:36;;;;;;;;;;;6.90;99.90;;;;;;10352208;28;19932;-84
2021/04/10 00:45:38;;;;;;;;;;;7.40;99.90;;;;;;10368611;28;20372;-84
2021/04/10 00:50:39;;;;;;;;;;;6.80;99.90;;;;;;10368233;28;20359;-84
2021/04/10 00:55:42;;;;;;;;;;;7.70;99.90;;;;;;10351173;28;19930;-84
2021/04/10 01:00:43;;;;;;;;;;;6.80;99.90;;;;;;10350403;28;19931;-84
2021/04/10 01:05:44;;;;;;;;;;;6.60;99.90;;;;;;10351823;28;19932;-84
2021/04/10 01:10:46;;;;;;;;;;;8.10;99.90;;;;;;10341600;28;19925;-84
2021/04/10 01:15:56;;;;;;;;;;;6.60;99.90;;;;;;10358235;28;19926;-84
2021/04/10 01:21:00;;;;;;;;;;;6.50;99.90;;;;;;10357832;28;20020;-85
2021/04/10 01:26:01;;;;;;;;;;;6.40;99.90;;;;;;10374629;28;19925;-84
2021/04/10 01:31:03;;;;;;;;;;;7.30;99.90;;;;;;10374601;28;20288;-84
2021/04/10 01:36:05;;;;;;;;;;;6.40;99.90;;;;;;10357706;28;19926;-85
2021/04/10 01:41:08;;;;;;;;;;;6.30;99.90;;;;;;10374763;28;20360;-85
2021/04/10 01:46:10;;;;;;;;;;;6.30;99.90;;;;;;10357291;28;19929;-85
2021/04/10 01:51:12;;;;;;;;;;;6.30;99.90;;;;;;10357221;28;19925;-85
2021/04/10 01:56:16;;;;;;;;;;;6.20;99.90;;;;;;10373505;28;20395;-85
2021/04/10 02:01:20;;;;;;;;;;;6.20;99.90;;;;;;10333162;28;20369;-84
2021/04/10 02:06:21;;;;;;;;;;;6.10;99.90;;;;;;10332654;28;19932;-85
2021/04/10 02:11:23;;;;;;;;;;;6.10;99.90;;;;;;10315750;28;19948;-84
2021/04/10 02:16:25;;;;;;;;;;;6.00;99.90;;;;;;10358222;28;20304;-85
2021/04/10 02:21:27;;;;;;;;;;;6.60;99.90;;;;;;10355684;28;19951;-85
2021/04/10 02:26:28;;;;;;;;;;;6.10;99.90;;;;;;10372776;28;19996;-85
2021/04/10 02:31:48;;;;;;;;;;;6.10;99.90;;;;;;10339866;28;19929;-84
2021/04/10 02:36:52;;;;;;;;;;;6.00;99.90;;;;;;10353922;28;20316;-84
2021/04/10 02:41:56;;;;;;;;;;;6.00;99.90;;;;;;10372365;28;19925;-85
2021/04/10 02:47:00;;;;;;;;;;;6.40;99.90;;;;;;10355488;28;19925;-85
2021/04/10 02:52:02;;;;;;;;;;;6.00;99.90;;;;;;10372657;28;19926;-85
2021/04/10 02:57:11;;;;;;;;;;;6.00;99.90;;;;;;10338765;28;19932;-85
2021/04/10 03:02:13;;;;;;;;;;;6.00;99.90;;;;;;10372260;28;19983;-85
2021/04/10 03:07:16;;;;;;;;;;;6.00;99.90;;;;;;10368592;23;19926;-85
2021/04/10 03:12:21;;;;;;;;;;;5.90;99.90;;;;;;10372146;28;20008;-85
2021/04/10 03:17:24;;;;;;;;;;;5.80;99.90;;;;;;10331400;28;19933;-86
2021/04/10 03:22:25;;;;;;;;;;;6.90;99.90;;;;;;10330669;28;19926;-86
2021/04/10 03:27:27;;;;;;;;;;;5.90;99.90;;;;;;10330341;28;19925;-86
2021/04/10 03:32:28;;;;;;;;;;;6.10;99.90;;;;;;10329522;28;19925;-85
2021/04/10 03:37:30;;;;;;;;;;;5.90;99.90;;;;;;10330173;28;19952;-85
2021/04/10 03:42:38;;;;;;;;;;;5.90;99.90;;;;;;10331221;28;20399;-86
2021/04/10 03:47:39;;;;;;;;;;;5.80;99.90;;;;;;10370692;28;19932;-85
2021/04/10 03:52:41;;;;;;;;;;;5.80;99.90;;;;;;10369696;28;19934;-85
2021/04/10 03:57:42;;;;;;;;;;;5.70;99.90;;;;;;10368830;28;20401;-85
2021/04/10 04:02:43;;;;;;;;;;;5.70;99.90;;;;;;10368443;28;20287;-85
2021/04/10 04:07:45;;;;;;;;;;;6.10;99.90;;;;;;10368114;28;19926;-85
2021/04/10 04:12:46;;;;;;;;;;;5.70;99.90;;;;;;10368019;28;20384;-85
2021/04/10 04:17:47;;;;;;;;;;;5.60;99.90;;;;;;10369779;28;19932;-85
2021/04/10 04:22:49;;;;;;;;;;;5.60;99.90;;;;;;10369644;28;19926;-85
2021/04/10 04:27:50;;;;;;;;;;;5.60;99.90;;;;;;10368446;28;19929;-85
2021/04/10 04:32:53;;;;;;;;;;;5.70;99.90;;;;;;10367779;28;19925;-85
2021/04/10 04:37:54;;;;;;;;;;;5.60;99.90;;;;;;10368860;28;19933;-85
2021/04/10 04:42:55;;;;;;;;;;;5.70;99.90;;;;;;10371445;28;20300;-85
2021/04/10 04:47:57;;;;;;;;;;;5.70;99.90;;;;;;10376130;28;19929;-85
2021/04/10 04:52:58;;;;;;;;;;;5.60;99.90;;;;;;10373758;28;20004;-85
2021/04/10 04:58:00;;;;;;;;;;;5.70;99.90;;;;;;10373418;28;20339;-85
2021/04/10 05:03:01;;;;;;;;;;;6.20;99.90;;;;;;10373188;28;19936;-85
2021/04/10 05:08:02;;;;;;;;;;;5.70;99.90;;;;;;10357769;28;19925;-85
2021/04/10 05:13:08;;;;;;;;;;;5.70;99.90;;;;;;10373836;28;20303;-85
2021/04/10 05:18:09;;;;;;;;;;;5.60;99.90;;;;;;10375531;28;19932;-85
2021/04/10 05:23:10;;;;;;;;;;;5.60;99.90;;;;;;10357858;28;20082;-85
2021/04/10 05:28:12;;;;;;;;;;;6.30;99.90;;;;;;10357080;28;19925;-85
2021/04/10 05:33:14;;;;;;;;;;;7.20;99.90;;;;;;10373863;28;19925;-85
2021/04/10 05:38:15;;;;;;;;;;;5.60;99.90;;;;;;10374418;28;20376;-85
2021/04/10 05:43:16;;;;;;;;;;;5.60;99.90;;;;;;10357443;28;19925;-85
2021/04/10 05:48:18;;;;;;;;;;;6.60;99.90;;;;;;10372934;28;20391;-85
2021/04/10 05:53:19;;;;;;;;;;;6.00;99.90;;;;;;10373120;28;19940;-85
2021/04/10 05:58:21;;;;;;;;;;;7.20;99.90;;;;;;10373328;28;19936;-85
2021/04/10 06:03:22;;;;;;;;;;;5.60;99.90;;;;;;10372135;28;19926;-85
2021/04/10 06:08:23;;;;;;;;;;;5.70;99.90;;;;;;10371821;28;20288;-86
2021/04/10 06:13:25;;;;;;;;;;;5.60;99.90;;;;;;10372119;28;19991;-85
2021/04/10 06:18:28;;;;;;;;;;;7.80;99.90;;;;;;10356768;28;19925;-85
2021/04/10 06:23:30;;;;;;;;;;;5.80;99.90;;;;;;10372279;28;20033;-85
2021/04/10 06:28:31;;;;;;;;;;;5.80;99.90;;;;;;10373207;28;19937;-85
2021/04/10 06:33:32;;;;;;;;;;;5.80;99.90;;;;;;10356020;28;20018;-85
2021/04/10 06:38:33;;;;;;;;;;;5.80;99.90;;;;;;10371967;28;19968;-86
2021/04/10 06:43:40;;;;;;;;;;;5.90;99.90;;;;;;10371503;28;19926;-86
2021/04/10 06:48:43;;;;;;;;;;;5.90;99.90;;;;;;10372697;28;19929;-85
2021/04/10 06:53:45;;;;;;;;;;;6.10;99.90;;;;;;10371351;28;20386;-86
2021/04/10 06:59:03;;;;;;;;;;;6.00;99.90;;;;;;10372331;28;19959;-86
2021/04/10 07:04:05;;;;;;;;;;;6.00;99.90;;;;;;10371527;28;20013;-85
2021/04/10 07:09:07;;;;;;;;;;;6.20;99.90;;;;;;10371599;28;19926;-85
2021/04/10 07:14:08;;;;;;;;;;;7.30;99.90;;;;;;10370541;28;19925;-85
2021/04/10 07:19:10;;;;;;;;;;;6.30;99.90;;;;;;10370411;28;19947;-85
2021/04/10 07:24:13;;;;;;;;;;;6.40;99.90;;;;;;10370451;28;19987;-86
2021/04/10 07:29:30;;;;;;;;;;;8.00;99.90;;;;;;10370632;28;19926;-85
2021/04/10 07:34:43;;;;;;;;;;;6.60;99.90;;;;;;10352918;28;19925;-85
2021/04/10 07:39:45;;;;;;;;;;;6.80;99.90;;;;;;10369182;28;20379;-85
2021/04/10 07:44:46;;;;;;;;;;;6.60;99.90;;;;;;10369409;28;19925;-85
2021/04/10 07:49:48;;;;;;;;;;;6.50;99.90;;;;;;10369695;28;19933;-84
2021/04/10 07:54:49;;;;;;;;;;;6.40;99.90;;;;;;10369705;28;19925;-86
2021/04/10 07:59:53;;;;;;;;;;;6.60;99.90;;;;;;10369164;28;19925;-85
2021/04/10 08:04:58;;;;;;;;;;;6.70;99.90;;;;;;10368461;28;19971;-85
2021/04/10 08:10:00;;;;;;;;;;;6.80;99.90;;;;;;10368602;28;19925;-85
2021/04/10 08:15:04;;;;;;;;;;;7.70;99.90;;;;;;10368854;28;19925;-85
2021/04/10 08:20:21;;;;;;;;;;;7.00;99.90;;;;;;10369292;28;20380;-85
2021/04/10 08:25:33;;;;;;;;;;;6.90;99.90;;;;;;10367713;28;20364;-85
2021/04/10 08:30:34;;;;;;;;;;;7.00;99.90;;;;;;10368196;28;20388;-85
2021/04/10 08:35:37;;;;;;;;;;;7.20;99.90;;;;;;10366851;28;20398;-85
2021/04/10 08:40:39;;;;;;;;;;;6.90;99.90;;;;;;10367546;28;19936;-86
2021/04/10 08:45:42;;;;;;;;;;;7.10;99.90;;;;;;10368410;28;19998;-86
2021/04/10 08:50:43;;;;;;;;;;;7.40;99.90;;;;;;10369146;28;19926;-86
2021/04/10 08:55:45;;;;;;;;;;;7.60;99.90;;;;;;10367985;28;20009;-85
2021/04/10 09:00:57;;;;;;;;;;;7.00;99.90;;;;;;10367743;28;19932;-85
2021/04/10 09:05:58;;;;;;;;;;;7.00;99.90;;;;;;10550562;22;19923;-84
2021/04/10 09:11:00;;;;;;;;;;;6.90;99.90;;;;;;10664346;27;19923;-85
2021/04/10 09:16:22;;;;;;;;;;;6.90;99.90;;;;;;10695843;27;20009;-84
2021/04/10 09:21:24;;;;;;;;;;;6.90;99.90;;;;;;10692222;27;19929;-85
2021/04/10 09:26:26;;;;;;;;;;;7.60;99.90;;;;;;10710351;27;19923;-85
2021/04/10 09:31:36;;;;;;;;;;;7.10;99.90;;;;;;10698120;27;19980;-85
2021/04/10 09:36:47;;;;;;;;;;;7.10;99.90;;;;;;10695979;27;20017;-85
2021/04/10 09:41:49;;;;;;;;;;;7.00;99.90;;;;;;10696593;27;19923;-85
2021/04/10 09:46:54;;;;;;;;;;;7.20;99.90;;;;;;10697962;27;20556;-84
2021/04/10 09:51:59;;;;;;;;;;;7.10;99.90;;;;;;10698848;27;19930;-85
2021/04/10 09:57:00;;;;;;;;;;;7.00;99.90;;;;;;10641014;27;20373;-85
2021/04/10 10:02:01;;;;;;;;;;;6.90;99.90;;;;;;10673130;27;20661;-85
2021/04/10 10:07:03;;;;;;;;;;;6.80;99.90;;;;;;10654642;27;20055;-85
2021/04/10 10:12:05;;;;;;;;;;;6.90;99.90;;;;;;10638525;27;19923;-85
2021/04/10 10:17:09;;;;;;;;;;;6.90;99.90;;;;;;10690360;27;19930;-85
2021/04/10 10:22:27;;;;;;;;;;;6.90;99.90;;;;;;10697671;27;19923;-85
2021/04/10 10:27:32;;;;;;;;;;;6.90;99.90;;;;;;10697071;27;19923;-84
2021/04/10 10:32:34;;;;;;;;;;;6.90;99.90;;;;;;10696426;27;20392;-86
2021/04/10 10:37:36;;;;;;;;;;;7.00;99.90;;;;;;10696063;27;19974;-85
2021/04/10 10:42:37;;;;;;;;;;;6.80;99.90;;;;;;10714036;27;20372;-85
2021/04/10 10:47:39;;;;;;;;;;;8.10;99.90;;;;;;10695564;27;20273;-85
2021/04/10 10:52:40;;;;;;;;;;;6.80;99.90;;;;;;10679024;27;19923;-85
2021/04/10 10:57:41;;;;;;;;;;;7.80;99.90;;;;;;10650508;27;19923;-85
2021/04/10 11:02:43;;;;;;;;;;;7.00;99.90;;;;;;10652903;27;19929;-85
2021/04/10 11:07:44;;;;;;;;;;;7.00;99.90;;;;;;10693201;27;20021;-86
2021/04/10 11:12:47;;;;;;;;;;;6.70;99.90;;;;;;10693864;27;19936;-85
2021/04/10 11:17:49;;;;;;;;;;;6.90;99.90;;;;;;10695724;27;19929;-85
2021/04/10 11:23:07;;;;;;;;;;;6.80;99.90;;;;;;10678137;27;19958;-85
2021/04/10 11:28:24;;;;;;;;;;;6.80;99.90;;;;;;10695184;27;19923;-85
2021/04/10 11:33:33;;;;;;;;;;;6.80;99.90;;;;;;10712632;27;19922;-85
2021/04/10 11:38:34;;;;;;;;;;;6.60;99.90;;;;;;10694233;27;19923;-85
2021/04/10 11:43:36;;;;;;;;;;;6.90;99.90;;;;;;10693985;27;20373;-85
2021/04/10 11:48:39;;;;;;;;;;;7.20;99.90;;;;;;10712503;27;20002;-85
2021/04/10 11:53:40;;;;;;;;;;;6.80;99.90;;;;;;10692617;27;19929;-86
2021/04/10 11:58:41;;;;;;;;;;;6.90;99.90;;;;;;10693419;27;19923;-87
2021/04/10 12:03:46;;;;;;;;;;;7.10;99.90;;;;;;10692742;27;20369;-87
2021/04/10 12:08:48;;;;;;;;;;;6.70;99.90;;;;;;10693656;27;19923;-87
2021/04/10 12:13:50;;;;;;;;;;;7.00;99.90;;;;;;10693488;27;19974;-87
2021/04/10 12:18:52;;;;;;;;;;;6.70;99.90;;;;;;10692351;27;20005;-87
2021/04/10 12:23:53;;;;;;;;;;;6.70;99.90;;;;;;10691074;27;19997;-88
2021/04/10 12:28:55;;;;;;;;;;;7.60;99.90;;;;;;10692542;27;19937;-88
2021/04/10 12:33:56;;;;;;;;;;;6.70;99.90;;;;;;10648000;27;20400;-85
2021/04/10 12:38:58;;;;;;;;;;;6.60;99.90;;;;;;10667743;27;19923;-85
2021/04/10 12:44:00;;;;;;;;;;;6.70;99.90;;;;;;10649486;27;19927;-85
2021/04/10 12:49:01;;;;;;;;;;;6.50;99.90;;;;;;10666721;27;20014;-85
2021/04/10 12:54:03;;;;;;;;;;;6.50;99.90;;;;;;10673444;27;19985;-85
2021/04/10 12:59:04;;;;;;;;;;;6.60;99.90;;;;;;10692154;27;19923;-86
2021/04/10 13:04:07;;;;;;;;;;;7.90;99.90;;;;;;10694286;27;19930;-87
2021/04/10 13:09:08;;;;;;;;;;;6.50;99.90;;;;;;10700797;27;19923;-87
2021/04/10 13:14:10;;;;;;;;;;;6.50;99.90;;;;;;10700492;27;19929;-86
2021/04/10 13:19:11;;;;;;;;;;;6.50;99.90;;;;;;10700264;27;19929;-87
2021/04/10 13:24:12;;;;;;;;;;;6.50;99.90;;;;;;10699917;27;19934;-87
2021/04/10 13:29:14;;;;;;;;;;;6.40;99.90;;;;;;10699920;27;19964;-87
2021/04/10 13:34:15;;;;;;;;;;;6.50;99.90;;;;;;10716487;27;19922;-86
2021/04/10 13:39:17;;;;;;;;;;;6.40;99.90;;;;;;10700232;27;20297;-87
2021/04/10 13:44:18;;;;;;;;;;;6.50;99.90;;;;;;10680040;27;19923;-87
2021/04/10 13:49:21;;;;;;;;;;;6.40;99.90;;;;;;10698885;27;20010;-87
2021/04/10 13:54:22;;;;;;;;;;;6.40;99.90;;;;;;10716605;27;20628;-87
2021/04/10 13:59:24;;;;;;;;;;;7.60;99.90;;;;;;10698056;27;19923;-87
2021/04/10 14:04:30;;;;;;;;;;;6.40;99.90;;;;;;10697620;27;19929;-87
2021/04/10 14:09:31;;;;;;;;;;;6.40;99.90;;;;;;10716281;27;19922;-87
2021/04/10 14:14:33;;;;;;;;;;;6.60;99.90;;;;;;10666142;27;19933;-87
2021/04/10 14:19:35;;;;;;;;;;;6.40;99.90;;;;;;10696797;27;19923;-88
2021/04/10 14:24:36;;;;;;;;;;;6.50;99.90;;;;;;10679691;27;20414;-88
2021/04/10 14:29:41;;;;;;;;;;;6.30;99.90;;;;;;10696711;27;19923;-88
2021/04/10 14:34:42;;;;;;;;;;;6.40;99.90;;;;;;10697156;27;19927;-88
2021/04/10 14:39:44;;;;;;;;;;;6.30;99.90;;;;;;10696905;27;19923;-89
2021/04/10 14:44:46;;;;;;;;;;;6.40;99.90;;;;;;10696443;27;19962;-88
2021/04/10 14:49:48;;;;;;;;;;;6.30;99.90;;;;;;10678458;27;20285;-88
2021/04/10 14:54:49;;;;;;;;;;;6.50;99.90;;;;;;10713937;27;20559;-88
2021/04/10 14:59:50;;;;;;;;;;;6.30;99.90;;;;;;10678667;27;19923;-88
2021/04/10 15:04:51;;;;;;;;;;;6.40;99.90;;;;;;10677170;27;20266;-88
2021/04/10 15:09:53;;;;;;;;;;;6.50;99.90;;;;;;10670342;27;20658;-88
2021/04/10 15:14:54;;;;;;;;;;;6.30;99.90;;;;;;10660887;27;19931;-89
2021/04/10 15:19:56;;;;;;;;;;;6.40;99.90;;;;;;10677656;27;19926;-89
2021/04/10 15:24:57;;;;;;;;;;;7.00;99.90;;;;;;10694589;27;20025;-90
2021/04/10 15:29:59;;;;;;;;;;;6.40;99.90;;;;;;10667446;27;19923;-88
2021/04/10 15:35:01;;;;;;;;;;;6.40;99.90;;;;;;10661726;22;20004;-94
2021/04/10 15:40:02;;;;;;;;;;;6.40;99.90;;;;;;10610430;27;20367;-94
2021/04/10 15:45:04;;;;;;;;;;;6.40;99.90;;;;;;10628098;27;19934;-94
2021/04/10 15:50:06;;;;;;;;;;;6.30;99.90;;;;;;10609365;27;19981;-93
2021/04/10 15:55:08;;;;;;;;;;;6.20;99.90;;;;;;10609422;27;19924;-94
2021/04/10 16:00:09;;;;;;;;;;;6.30;99.90;;;;;;10610941;27;20006;-95
2021/04/10 16:05:11;;;;;;;;;;;6.30;99.90;;;;;;10612819;27;20034;-95
2021/04/10 16:10:12;;;;;;;;;;;6.20;99.90;;;;;;10609644;27;19945;-94
2021/04/10 16:15:15;;;;;;;;;;;6.30;99.90;;;;;;10591927;27;21949;-94
2021/04/10 16:20:16;;;;;;;;;;;7.60;99.90;;;;;;10608711;27;19924;-93
2021/04/10 16:25:19;;;;;;;;;;;5.70;99.90;;;;;;10565477;28;19928;-94
2021/04/10 16:30:22;;;;;;;;;;;6.20;99.90;;;;;;10600704;27;19965;-94
2021/04/10 16:35:26;;;;;;;;;;;6.20;99.90;;;;;;10610136;27;19927;-93
2021/04/10 16:40:29;;;;;;;;;;;6.20;99.90;;;;;;10607881;28;20362;-94
2021/04/10 16:45:33;;;;;;;;;;;6.80;99.90;;;;;;10608438;28;20022;-94
2021/04/10 16:50:35;;;;;;;;;;;7.20;99.90;;;;;;10608160;28;19929;-94
2021/04/10 16:55:37;;;;;;;;;;;7.70;99.90;;;;;;10626069;28;19930;-94
2021/04/10 17:00:38;;;;;;;;;;;7.30;99.90;;;;;;10625916;28;20382;-93
2021/04/10 17:05:41;;;;;;;;;;;6.10;99.90;;;;;;10557770;28;19923;-93
2021/04/10 17:10:42;;;;;;;;;;;6.20;99.90;;;;;;10549260;28;19924;-93
2021/04/10 17:15:44;;;;;;;;;;;7.60;99.90;;;;;;10548596;28;19924;-93
2021/04/10 17:20:45;;;;;;;;;;;6.10;99.90;;;;;;10565153;28;19977;-93
2021/04/10 17:25:48;;;;;;;;;;;6.10;99.90;;;;;;10564338;28;20359;-93
2021/04/10 17:30:50;;;;;;;;;;;7.50;99.90;;;;;;10548544;28;19931;-93
2021/04/10 17:35:53;;;;;;;;;;;6.10;99.90;;;;;;10566332;27;19930;-92
2021/04/10 17:40:54;;;;;;;;;;;6.00;99.90;;;;;;10564557;28;19967;-92
2021/04/10 17:45:57;;;;;;;;;;;6.00;99.90;;;;;;10564112;28;19923;-93
2021/04/10 17:50:59;;;;;;;;;;;6.10;99.90;;;;;;10568757;28;20301;-93
2021/04/10 17:56:07;;;;;;;;;;;6.10;99.90;;;;;;10571812;28;19924;-92
2021/04/10 18:01:09;;;;;;;;;;;6.10;99.90;;;;;;10589684;28;19924;-92
2021/04/10 18:06:11;;;;;;;;;;;6.10;99.90;;;;;;10553552;28;19938;-92
2021/04/10 18:11:12;;;;;;;;;;;6.00;99.90;;;;;;10549202;28;19924;-93
2021/04/10 18:16:14;;;;;;;;;;;5.90;99.90;;;;;;10528290;28;20041;-92
2021/04/10 18:21:16;;;;;;;;;;;6.10;99.90;;;;;;10529176;28;19924;-92
2021/04/10 18:26:18;;;;;;;;;;;7.40;99.90;;;;;;10556574;28;20030;-91
2021/04/10 18:31:20;;;;;;;;;;;6.80;99.90;;;;;;10582615;28;19928;-92
2021/04/10 18:36:24;;;;;;;;;;;7.00;99.90;;;;;;10580510;27;19927;-92
2021/04/10 18:41:27;;;;;;;;;;;5.70;99.90;;;;;;10612509;27;19923;-92
2021/04/10 18:46:28;;;;;;;;;;;5.70;99.90;;;;;;10630562;27;19929;-92
2021/04/10 18:51:30;;;;;;;;;;;5.70;99.90;;;;;;10628478;27;20286;-93
2021/04/10 18:56:53;;;;;;;;;;;5.70;99.90;;;;;;10614809;27;19924;-92
2021/04/10 19:01:58;;;;;;;;;;;5.60;99.90;;;;;;10606784;27;20026;-93
2021/04/10 19:07:00;;;;;;;;;;;5.60;99.90;;;;;;10594348;27;19923;-92
2021/04/10 19:12:01;;;;;;;;;;;5.60;99.90;;;;;;10611423;27;19931;-92
2021/04/10 19:17:03;;;;;;;;;;;5.50;99.90;;;;;;10605995;27;19927;-92
2021/04/10 19:22:04;;;;;;;;;;;6.30;99.90;;;;;;10610386;27;19923;-92
2021/04/10 19:27:05;;;;;;;;;;;6.20;99.90;;;;;;10593722;27;19923;-92
2021/04/10 19:32:07;;;;;;;;;;;5.60;99.90;;;;;;10611193;27;19973;-93
2021/04/10 19:37:12;;;;;;;;;;;5.60;99.90;;;;;;10609596;27;19947;-93
2021/04/10 19:42:14;;;;;;;;;;;5.60;99.90;;;;;;10610429;27;20022;-93
2021/04/10 19:47:16;;;;;;;;;;;5.60;99.90;;;;;;10609792;27;19930;-92
2021/04/10 19:52:18;;;;;;;;;;;5.60;99.90;;;;;;10609499;27;19949;-93
2021/04/10 19:57:19;;;;;;;;;;;5.60;99.90;;;;;;10627529;27;19923;-92
2021/04/10 20:02:20;;;;;;;;;;;5.60;99.90;;;;;;10571915;28;19930;-93
2021/04/10 20:07:21;;;;;;;;;;;5.60;99.90;;;;;;10577237;28;19923;-93
2021/04/10 20:12:23;;;;;;;;;;;6.80;99.90;;;;;;10556719;28;19970;-93
2021/04/10 20:17:24;;;;;;;;;;;5.60;99.90;;;;;;10565997;28;19931;-93
2021/04/10 20:22:29;;;;;;;;;;;6.20;99.90;;;;;;10566991;28;19924;-93
2021/04/10 20:27:30;;;;;;;;;;;5.60;99.90;;;;;;10572724;28;19946;-93
2021/04/10 20:32:32;;;;;;;;;;;6.80;99.90;;;;;;10585440;27;19927;-93
2021/04/10 20:37:33;;;;;;;;;;;5.50;99.90;;;;;;10557811;28;19928;-93
2021/04/10 20:42:37;;;;;;;;;;;5.50;99.90;;;;;;10518933;28;19924;-93
2021/04/10 20:47:39;;;;;;;;;;;5.90;99.90;;;;;;10549670;28;20003;-93
2021/04/10 20:52:40;;;;;;;;;;;5.60;99.90;;;;;;10549283;28;19923;-93
2021/04/10 20:57:41;;;;;;;;;;;6.20;99.90;;;;;;10587405;28;20356;-93
2021/04/10 21:02:43;;;;;;;;;;;5.40;99.90;;;;;;10549352;28;20453;-93
2021/04/10 21:07:45;;;;;;;;;;;6.50;99.90;;;;;;10559107;28;19924;-93
2021/04/10 21:12:46;;;;;;;;;;;5.70;99.90;;;;;;10541863;28;19956;-93
2021/04/10 21:17:47;;;;;;;;;;;5.30;99.90;;;;;;10542476;28;19924;-93
2021/04/10 21:22:49;;;;;;;;;;;5.30;99.90;;;;;;10516488;28;19924;-93
2021/04/10 21:27:50;;;;;;;;;;;5.30;99.90;;;;;;10574543;28;19924;-92
2021/04/10 21:32:52;;;;;;;;;;;5.30;99.90;;;;;;10528295;28;20306;-92
2021/04/10 21:37:53;;;;;;;;;;;5.20;99.90;;;;;;10504746;23;20449;-92
2021/04/10 21:42:54;;;;;;;;;;;5.20;99.90;;;;;;10499256;28;19935;-93
2021/04/10 21:48:01;;;;;;;;;;;6.10;99.90;;;;;;10482752;28;19932;-93
2021/04/10 21:53:02;;;;;;;;;;;5.10;99.90;;;;;;10513916;27;19923;-92
2021/04/10 21:58:04;;;;;;;;;;;5.10;99.90;;;;;;10473200;28;19925;-93
2021/04/10 22:03:06;;;;;;;;;;;5.80;99.90;;;;;;10498503;28;19925;-92
2021/04/10 22:08:07;;;;;;;;;;;5.00;99.90;;;;;;10481505;28;19924;-93
2021/04/10 22:13:09;;;;;;;;;;;6.30;99.90;;;;;;10492455;28;20398;-92
2021/04/10 22:18:10;;;;;;;;;;;5.70;99.90;;;;;;10497276;28;19992;-93
2021/04/10 22:23:12;;;;;;;;;;;5.00;99.90;;;;;;10481535;28;19983;-92
2021/04/10 22:28:14;;;;;;;;;;;4.90;99.90;;;;;;10480863;28;20282;-92
2021/04/10 22:33:15;;;;;;;;;;;5.70;99.90;;;;;;10497322;28;19924;-93
2021/04/10 22:38:16;;;;;;;;;;;5.00;99.90;;;;;;10495040;28;19924;-93
2021/04/10 22:43:19;;;;;;;;;;;4.90;99.90;;;;;;10480704;28;19959;-93
2021/04/10 22:48:20;;;;;;;;;;;6.10;99.90;;;;;;10479344;28;19928;-93
2021/04/10 22:53:24;;;;;;;;;;;5.50;99.90;;;;;;10480464;28;19931;-93
2021/04/10 22:58:27;;;;;;;;;;;4.70;99.90;;;;;;10496759;28;19925;-93
2021/04/10 23:03:29;;;;;;;;;;;4.80;99.90;;;;;;10496106;28;20367;-93
2021/04/10 23:08:30;;;;;;;;;;;4.40;99.90;;;;;;10496444;28;19932;-93
2021/04/10 23:13:31;;;;;;;;;;;4.90;99.90;;;;;;10479794;28;19971;-94
2021/04/10 23:18:33;;;;;;;;;;;4.30;99.90;;;;;;10496250;28;20015;-93
2021/04/10 23:23:34;;;;;;;;;;;4.30;99.90;;;;;;10479477;28;20019;-93
2021/04/10 23:28:35;;;;;;;;;;;4.20;99.90;;;;;;10495695;28;19972;-93
2021/04/10 23:33:36;;;;;;;;;;;4.30;99.90;;;;;;10479109;28;20008;-92
2021/04/10 23:38:38;;;;;;;;;;;4.20;99.90;;;;;;10477985;28;19928;-93
2021/04/10 23:43:39;;;;;;;;;;;4.20;99.90;;;;;;10495700;28;19924;-94
2021/04/10 23:48:41;;;;;;;;;;;5.00;99.90;;;;;;10477371;28;20393;-93
2021/04/10 23:53:42;;;;;;;;;;;4.10;99.90;;;;;;10494287;28;19924;-93
2021/04/10 23:58:43;;;;;;;;;;;5.10;99.90;;;;;;10493219;28;19924;-94
